createdAt,value
2019-04-11T00:02:29.227Z,78793.11
2019-04-11T00:07:45.239Z,78819.08
2019-04-11T00:13:21.104Z,78831.06
2019-04-11T00:18:32.444Z,78829.06
2019-04-11T00:23:42.680Z,78849.05
2019-04-11T00:29:01.752Z,78850.05
2019-04-11T00:34:15.066Z,78856.04
2019-04-11T00:39:31.921Z,78857.03
2019-04-11T00:44:41.224Z,78871.02
2019-04-11T00:49:54.645Z,78874.02
2019-04-11T00:55:13.345Z,78865.03
2019-04-11T01:00:22.869Z,78872.02
2019-04-11T01:05:37.657Z,78883.01
2019-04-11T01:10:53.203Z,78887.00
2019-04-11T01:16:17.185Z,78887.00
2019-04-11T01:21:36.888Z,78898.99
2019-04-11T01:26:57.370Z,78900.98
2019-04-11T01:32:16.074Z,78906.98
2019-04-11T01:37:21.827Z,78909.98
2019-04-11T01:42:33.351Z,78921.97
2019-04-11T01:47:59.478Z,78935.95
2019-04-11T01:53:22.893Z,78933.95
2019-04-11T01:58:42.598Z,78931.95
2019-04-11T02:04:04.243Z,78937.95
2019-04-11T02:09:19.917Z,78945.94
2019-04-11T02:14:31.311Z,78960.92
2019-04-11T02:19:52.244Z,78970.91
2019-04-11T02:25:06.073Z,78975.91
2019-04-11T02:30:14.201Z,78975.91
2019-04-11T02:35:31.094Z,78974.91
2019-04-11T02:40:49.749Z,78996.89
2019-04-11T02:46:17.433Z,79001.88
2019-04-11T02:51:22.619Z,79013.88
2019-04-11T02:56:47.110Z,79019.86
2019-04-11T03:02:04.510Z,79018.86
2019-04-11T03:07:16.553Z,79028.86
2019-04-11T03:12:34.350Z,79024.86
2019-04-11T03:17:54.999Z,79033.84
2019-04-11T03:23:51.267Z,79040.84
2019-04-11T03:29:04.222Z,79062.82
2019-04-11T03:39:59.387Z,79062.82
2019-04-11T03:45:03.370Z,79074.81
2019-04-11T03:50:10.692Z,79087.80
2019-04-11T03:55:30.030Z,79083.80
2019-04-11T04:00:44.615Z,79086.80
2019-04-11T04:06:06.870Z,79092.79
2019-04-11T04:11:23.186Z,79094.79
2019-04-11T04:16:47.690Z,79107.77
2019-04-11T04:21:57.495Z,79112.77
2019-04-11T04:27:07.645Z,79128.75
2019-04-11T04:32:20.760Z,79132.75
2019-04-11T04:37:32.073Z,79136.74
2019-04-11T04:42:53.296Z,79138.74
2019-04-11T04:48:10.976Z,79137.74
2019-04-11T04:53:23.429Z,79154.73
2019-04-11T04:58:39.810Z,79160.72
2019-04-11T05:03:51.545Z,79151.73
2019-04-11T05:09:08.637Z,79150.73
2019-04-11T05:14:24.006Z,79154.73
2019-04-11T05:19:42.444Z,79159.72
2019-04-11T05:25:01.377Z,79152.73
2019-04-11T05:30:25.723Z,79156.72
2019-04-11T05:35:34.391Z,79150.73
2019-04-11T05:40:42.547Z,79140.73
2019-04-11T05:45:53.649Z,79138.74
2019-04-11T05:51:08.969Z,79134.75
2019-04-11T05:56:29.947Z,79111.77
2019-04-11T06:01:48.859Z,79101.78
2019-04-11T06:07:13.054Z,79084.80
2019-04-11T06:12:41.431Z,79064.81
2019-04-11T06:17:50.712Z,79060.82
2019-04-11T06:23:15.626Z,79048.83
2019-04-11T06:28:33.926Z,79026.86
2019-04-11T06:33:53.196Z,79007.88
2019-04-11T06:39:21.085Z,78982.91
2019-04-11T06:50:43.890Z,78966.92
2019-04-11T06:56:29.516Z,78951.94
2019-04-11T07:01:41.154Z,78948.94
2019-04-11T07:07:00.184Z,78924.96
2019-04-11T07:12:17.671Z,78906.98
2019-04-11T07:17:46.046Z,78893.00
2019-04-11T07:23:09.394Z,78858.03
2019-04-11T07:28:39.364Z,78819.08
2019-04-11T07:34:00.731Z,78773.13
2019-04-11T07:39:24.666Z,78764.14
2019-04-11T07:44:36.542Z,78730.17
2019-04-11T07:49:42.888Z,78700.21
2019-04-11T07:54:51.494Z,78686.22
2019-04-11T08:00:44.180Z,78629.29
2019-04-11T08:06:05.762Z,78680.23
2019-04-11T08:11:25.558Z,78641.27
2019-04-11T08:16:55.528Z,78574.35
2019-04-11T08:22:25.194Z,78568.36
2019-04-11T08:27:48.458Z,78565.36
2019-04-11T08:32:58.291Z,78503.44
2019-04-11T08:38:16.810Z,78519.41
2019-04-11T08:43:31.052Z,78519.41
2019-04-11T08:48:42.794Z,78479.46
2019-04-11T08:54:10.089Z,78477.47
2019-04-11T08:59:46.882Z,78450.50
2019-04-11T09:05:13.627Z,78475.47
2019-04-11T09:10:40.172Z,78437.51
2019-04-11T09:16:18.326Z,78421.53
2019-04-11T09:21:34.114Z,78378.58
2019-04-11T09:27:18.505Z,78337.63
2019-04-11T09:32:42.528Z,78307.67
2019-04-11T09:37:58.187Z,78312.66
2019-04-11T09:43:13.757Z,78288.69
2019-04-11T09:48:50.386Z,78230.76
2019-04-11T09:54:01.578Z,78267.72
2019-04-11T09:59:18.030Z,78252.73
2019-04-11T10:04:28.100Z,78229.77
2019-04-11T10:09:54.172Z,78081.95
2019-04-11T10:15:03.075Z,77842.26
2019-04-11T10:20:13.467Z,77709.44
2019-04-11T10:25:32.530Z,77960.10
2019-04-11T10:31:15.564Z,77547.66
2019-04-11T10:36:29.356Z,77424.84
2019-04-11T10:41:40.497Z,77516.70
2019-04-11T10:47:08.811Z,77962.10
2019-04-11T10:52:26.621Z,77934.14
2019-04-11T10:57:44.618Z,78089.94
2019-04-11T11:03:07.742Z,78024.02
2019-04-11T11:08:24.322Z,77851.25
2019-04-11T11:13:50.122Z,77890.20
2019-04-11T11:19:41.938Z,77845.25
2019-04-11T11:24:48.499Z,78038.00
2019-04-11T11:30:17.329Z,77996.06
2019-04-11T11:35:37.605Z,77525.69
2019-04-11T11:41:02.488Z,77180.20
2019-04-11T11:46:26.820Z,77205.16
2019-04-11T11:52:11.071Z,77508.72
2019-04-11T11:57:30.874Z,77550.66
2019-04-11T12:02:44.346Z,77385.89
2019-04-11T12:08:00.399Z,77095.32
2019-04-11T12:13:24.818Z,76914.60
2019-04-11T12:18:43.941Z,76671.98
2019-04-11T12:24:17.986Z,77367.92
2019-04-11T12:29:57.741Z,77670.48
2019-04-11T12:35:30.444Z,77686.47
2019-04-11T12:41:00.270Z,77803.31
2019-04-11T12:46:30.001Z,77611.58
2019-04-11T12:51:54.960Z,77069.36
2019-04-11T12:57:22.502Z,77187.19
2019-04-11T13:02:51.827Z,76815.76
2019-04-11T13:08:18.343Z,76935.56
2019-04-11T13:13:35.151Z,77464.78
2019-04-11T13:19:18.247Z,77296.02
2019-04-11T13:24:57.963Z,77258.08
2019-04-11T13:30:27.992Z,77594.59
2019-04-11T13:36:15.774Z,77528.69
2019-04-11T13:41:57.128Z,77052.39
2019-04-11T13:47:30.332Z,76706.93
2019-04-11T13:53:07.808Z,76503.27
2019-04-11T13:58:39.006Z,77183.19
2019-04-11T14:04:08.734Z,77195.17
2019-04-11T14:09:33.098Z,76411.42
2019-04-11T14:15:06.339Z,77062.38
2019-04-11T14:20:47.074Z,77322.98
2019-04-11T14:26:15.889Z,77500.73
2019-04-11T14:31:54.036Z,77215.14
2019-04-11T14:37:21.958Z,76765.84
2019-04-11T14:43:09.876Z,76777.81
2019-04-11T14:48:27.538Z,77309.00
2019-04-11T14:53:56.357Z,77623.55
2019-04-11T14:59:27.328Z,77664.50
2019-04-11T15:04:50.039Z,77553.66
2019-04-11T15:10:22.102Z,77638.53
2019-04-11T15:15:42.949Z,77753.38
2019-04-11T15:21:07.968Z,77773.35
2019-04-11T15:26:38.886Z,77840.26
2019-04-11T15:32:10.957Z,77853.24
2019-04-11T15:38:00.236Z,77827.28
2019-04-11T15:43:42.636Z,77832.27
2019-04-11T15:49:21.920Z,77833.27
2019-04-11T15:54:45.771Z,77829.27
2019-04-11T16:00:31.193Z,77784.34
2019-04-11T16:06:03.012Z,77881.20
2019-04-11T16:11:41.227Z,77818.29
2019-04-11T16:17:37.350Z,77828.28
2019-04-11T16:23:13.155Z,77860.23
2019-04-11T16:28:40.447Z,77934.14
2019-04-11T16:34:15.840Z,77934.14
2019-04-11T16:39:50.120Z,77900.19
2019-04-11T16:45:25.096Z,77902.18
2019-04-11T16:50:49.229Z,77958.11
2019-04-11T16:55:59.039Z,77987.06
2019-04-11T17:01:09.391Z,77960.10
2019-04-11T17:06:58.880Z,77950.12
2019-04-11T17:12:10.715Z,78032.01
2019-04-11T17:17:26.115Z,78022.02
2019-04-11T17:22:37.529Z,78056.98
2019-04-11T17:27:45.078Z,78057.98
2019-04-11T17:32:59.732Z,78099.92
2019-04-11T17:38:11.985Z,78113.91
2019-04-11T17:43:24.743Z,78083.95
2019-04-11T17:48:38.503Z,78049.98
2019-04-11T17:53:50.242Z,78068.96
2019-04-11T17:59:03.644Z,78071.95
2019-04-11T18:04:17.279Z,78071.95
2019-04-11T18:09:29.284Z,78049.98
2019-04-11T18:14:43.579Z,78085.94
2019-04-11T18:19:53.212Z,78114.91
2019-04-11T18:25:24.271Z,78119.90
2019-04-11T18:30:34.881Z,78119.90
2019-04-11T18:35:46.901Z,78151.86
2019-04-11T18:41:00.014Z,78123.89
2019-04-11T18:46:09.163Z,78147.86
2019-04-11T18:51:23.180Z,78161.84
2019-04-11T18:56:38.172Z,78124.89
2019-04-11T19:02:10.767Z,78137.88
2019-04-11T19:07:27.561Z,78217.77
2019-04-11T19:12:36.617Z,78211.78
2019-04-11T19:17:46.851Z,78202.80
2019-04-11T19:22:57.419Z,78213.78
2019-04-11T19:28:15.524Z,78211.78
2019-04-11T19:33:25.032Z,78193.80
2019-04-11T19:38:43.021Z,78257.73
2019-04-11T19:43:51.942Z,78247.73
2019-04-11T19:49:03.996Z,78238.75
2019-04-11T19:54:16.543Z,78279.70
2019-04-11T19:59:31.109Z,78307.67
2019-04-11T20:04:42.964Z,78282.70
2019-04-11T20:09:55.723Z,78268.72
2019-04-11T20:15:08.829Z,78290.69
2019-04-11T20:20:18.261Z,78281.70
2019-04-11T20:25:33.636Z,78261.72
2019-04-11T20:30:51.708Z,78281.70
2019-04-11T20:36:03.295Z,78353.61
2019-04-11T20:41:13.211Z,78388.57
2019-04-11T20:46:28.897Z,78401.55
2019-04-11T20:51:42.601Z,78408.55
2019-04-11T20:56:52.940Z,78415.53
2019-04-11T21:02:03.896Z,78413.54
2019-04-11T21:07:17.724Z,78429.52
2019-04-11T21:12:31.498Z,78419.53
2019-04-11T21:17:44.934Z,78439.51
2019-04-11T21:23:05.401Z,78419.53
2019-04-11T21:28:23.223Z,78448.50
2019-04-11T21:33:36.047Z,78444.50
2019-04-11T21:38:50.231Z,78453.49
2019-04-11T21:44:06.478Z,78440.51
2019-04-11T21:49:19.358Z,78467.48
2019-04-11T21:54:29.453Z,78479.46
2019-04-11T21:59:53.857Z,78501.44
2019-04-11T22:05:05.217Z,78525.41
2019-04-11T22:10:18.948Z,78538.39
2019-04-11T22:15:32.332Z,78542.39
2019-04-11T22:20:41.452Z,78541.39
2019-04-11T22:25:53.020Z,78545.38
2019-04-11T22:31:05.952Z,78537.39
2019-04-11T22:36:21.435Z,78540.39
2019-04-11T22:41:35.432Z,78566.36
2019-04-11T22:46:45.650Z,78560.37
2019-04-11T22:51:58.344Z,78595.33
2019-04-11T22:57:12.165Z,78587.34
2019-04-11T23:02:53.227Z,78585.34
2019-04-11T23:08:06.134Z,78586.34
2019-04-11T23:13:22.647Z,78587.34
2019-04-11T23:18:32.741Z,78623.30
2019-04-11T23:23:45.640Z,78594.33
2019-04-11T23:28:59.461Z,78579.34
2019-04-11T23:34:14.887Z,78626.29
2019-04-11T23:39:24.832Z,78666.25
2019-04-11T23:44:52.807Z,78690.22
2019-04-11T23:50:17.806Z,78683.23
2019-04-11T23:55:30.013Z,78679.23
